Kinloss, United Kingdom
Current Conditions -  °F | °C
As of 9:50 AM on Thursday 29 Jan 2015 (Local Time) from EGQK Reporting Station
Scattered Clouds Scattered Clouds  
Wind Chill: 27°   Ceiling: Unl
Heat Index: 36°   Visibility: 6mi
Dew Point: 30°   Wind: 13mph
Humidity: 81%   Direction: 240°WSW
Pressure: 28.7"   Gusts: NA
Location:  57.64°N, 3.57°W
Report Text: EGQK 290950Z AUTO 24011KT 9999 SCT037/// 02/M01 Q0972
Loading
Personal Weather Stations






























Interactive Weather Map New forecast layout! Learn more

10-Day Weather Forecast

Advertisements
Track Severe Weather on mobile